Time;durP1;ratioP1;P1;durP2;ratioP2;P2;SDS_P1;SDS_P2;PMS_P1;PMS_P2;Temp;Humidity;BMP_temperature;BMP_pressure;BME280_temperature;BME280_humidity;BME280_pressure;Samples;Min_cycle;Max_cycle;Signal;HPM_P1;HPM_P2
2022/09/29 00:00:34;;;;;;;3.65;2.60;;;;;;;;;;5053879;28;20043;-56
2022/09/29 00:03:13;;;;;;;4.60;2.40;;;;;;;;;;5036488;28;20067;-56
2022/09/29 00:06:08;;;;;;;4.45;2.75;;;;;;;;;;5053668;28;20417;-56
2022/09/29 00:09:05;;;;;;;3.38;2.45;;;;;;;;;;5054031;28;20036;-55
2022/09/29 00:11:43;;;;;;;3.78;2.75;;;;;;;;;;5054320;28;20032;-54
2022/09/29 00:14:34;;;;;;;4.63;2.25;;;;;;;;;;5054503;28;20025;-56
2022/09/29 00:17:15;;;;;;;8.07;2.20;;;;;;;;;;5053413;28;20033;-55
2022/09/29 00:20:23;;;;;;;3.10;2.00;;;;;;;;;;5037383;28;20067;-55
2022/09/29 00:23:05;;;;;;;;;;;;;;;;;;;;;
2022/09/29 00:25:47;;;;;;;4.45;2.30;;;;;;;;;;5048624;28;20056;-52
2022/09/29 00:28:55;;;;;;;;;;;;;;;;;;;;;
2022/09/29 00:31:39;;;;;;;2.22;1.50;;;;;;;;;;5041368;28;20033;-51
2022/09/29 00:34:32;;;;;;;7.35;2.85;;;;;;;;;;5054284;28;20451;-56
2022/09/29 00:37:01;;;;;;;2.40;1.83;;;;;;;;;;5009426;28;20044;-56
2022/09/29 00:39:36;;;;;;;6.43;1.90;;;;;;;;;;5033226;28;20095;-55
2022/09/29 00:42:47;;;;;;;4.32;2.75;;;;;;;;;;5054221;28;20025;-55
2022/09/29 00:45:31;;;;;;;6.28;2.53;;;;;;;;;;5053728;28;20071;-56
2022/09/29 00:48:20;;;;;;;5.07;2.13;;;;;;;;;;5054256;28;20045;-54
2022/09/29 00:51:03;;;;;;;4.20;2.38;;;;;;;;;;5053695;28;20044;-56
2022/09/29 00:53:41;;;;;;;3.25;1.92;;;;;;;;;;5009443;28;20413;-54
2022/09/29 00:56:17;;;;;;;2.50;1.92;;;;;;;;;;5038035;28;20116;-56
2022/09/29 00:59:13;;;;;;;4.05;2.85;;;;;;;;;;5057384;28;20066;-55
2022/09/29 01:02:05;;;;;;;2.80;2.00;;;;;;;;;;5055918;28;20071;-55
2022/09/29 01:07:45;;;;;;;4.05;2.28;;;;;;;;;;5057388;28;20083;-56
2022/09/29 01:10:20;;;;;;;2.75;2.08;;;;;;;;;;5057541;28;20040;-56
2022/09/29 01:13:17;;;;;;;4.70;1.83;;;;;;;;;;5038764;28;20095;-55
2022/09/29 01:16:02;;;;;;;;;;;;;;;;;;;;;
2022/09/29 01:22:04;;;;;;;4.22;2.28;;;;;;;;;;5057361;28;20029;-54
2022/09/29 01:24:50;;;;;;;2.67;1.75;;;;;;;;;;5038564;28;20032;-55
2022/09/29 01:27:35;;;;;;;3.40;2.47;;;;;;;;;;5038748;28;20032;-55
2022/09/29 01:30:31;;;;;;;2.97;2.63;;;;;;;;;;5057143;28;20033;-55
2022/09/29 01:33:25;;;;;;;2.95;2.03;;;;;;;;;;5039517;28;20124;-56
2022/09/29 01:36:13;;;;;;;3.17;2.22;;;;;;;;;;5056506;28;20039;-54
2022/09/29 01:39:27;;;;;;;3.85;2.33;;;;;;;;;;5056499;28;20037;-56
2022/09/29 01:42:04;;;;;;;9.27;2.65;;;;;;;;;;5057110;28;20079;-55
2022/09/29 01:44:34;;;;;;;3.47;2.72;;;;;;;;;;5057476;28;20100;-53
2022/09/29 01:47:35;;;;;;;;;;;;;;;;;;;;;
2022/09/29 01:50:33;;;;;;;3.47;2.35;;;;;;;;;;5054893;28;20045;-56
2022/09/29 01:53:21;;;;;;;3.67;2.40;;;;;;;;;;4995798;28;20132;-54
2022/09/29 01:55:53;;;;;;;3.05;1.88;;;;;;;;;;5039448;28;20399;-56
2022/09/29 02:01:54;;;;;;;3.25;2.33;;;;;;;;;;5056071;28;20044;-56
2022/09/29 02:04:41;;;;;;;3.58;2.40;;;;;;;;;;5055427;28;20041;-53
2022/09/29 02:10:22;;;;;;;5.72;2.78;;;;;;;;;;5015003;28;20038;-55
2022/09/29 02:13:09;;;;;;;2.53;1.88;;;;;;;;;;5015450;28;20092;-54
2022/09/29 02:15:40;;;;;;;4.00;2.35;;;;;;;;;;5002865;28;20046;-55
2022/09/29 02:18:06;;;;;;;;;;;;;;;;;;5016937;28;20037;-54
2022/09/29 02:20:55;;;;;;;2.42;1.77;;;;;;;;;;5014811;28;19909;-56
2022/09/29 02:23:31;;;;;;;;;;;;;;;;;;;;;
2022/09/29 02:26:46;;;;;;;;;;;;;;;;;;;;;
2022/09/29 02:29:26;;;;;;;3.30;2.33;;;;;;;;;;5014757;28;20120;-55
2022/09/29 02:32:16;;;;;;;3.90;2.38;;;;;;;;;;5015882;28;20033;-53
2022/09/29 02:35:00;;;;;;;3.03;1.75;;;;;;;;;;5004351;28;20377;-56
2022/09/29 02:37:35;;;;;;;2.97;2.20;;;;;;;;;;5011414;28;20033;-56
2022/09/29 02:40:37;;;;;;;3.20;1.52;;;;;;;;;;5016841;28;20030;-54
2022/09/29 02:43:32;;;;;;;2.58;1.70;;;;;;;;;;4936383;29;20042;-53
2022/09/29 02:46:13;;;;;;;3.30;2.08;;;;;;;;;;4936108;29;20040;-56
2022/09/29 02:52:47;;;;;;;2.65;2.03;;;;;;;;;;4927625;29;20063;-54
2022/09/29 02:55:43;;;;;;;2.92;2.40;;;;;;;;;;4936480;29;20063;-55
2022/09/29 02:58:24;;;;;;;3.08;2.15;;;;;;;;;;4935494;29;20047;-55
2022/09/29 03:01:04;;;;;;;3.80;2.97;;;;;;;;;;4936335;29;20068;-51
2022/09/29 03:04:02;;;;;;;4.00;2.58;;;;;;;;;;4955531;28;20045;-56
2022/09/29 03:06:47;;;;;;;3.08;1.70;;;;;;;;;;5049060;28;20041;-56
2022/09/29 03:09:42;;;;;;;4.72;3.00;;;;;;;;;;5055457;28;20083;-56
2022/09/29 03:12:08;;;;;;;4.05;2.35;;;;;;;;;;5037763;28;20041;-54
2022/09/29 03:14:37;;;;;;;7.68;2.50;;;;;;;;;;5032052;28;20029;-54
2022/09/29 03:17:13;;;;;;;3.60;2.78;;;;;;;;;;5054736;28;20037;-55
2022/09/29 03:22:42;;;;;;;3.88;3.00;;;;;;;;;;5052000;28;20107;-56
2022/09/29 03:25:12;;;;;;;4.32;3.47;;;;;;;;;;5054450;28;20021;-54
2022/09/29 03:28:03;;;;;;;3.65;2.88;;;;;;;;;;5036442;28;20036;-55
2022/09/29 03:30:58;;;;;;;3.25;2.42;;;;;;;;;;5054425;28;20071;-54
2022/09/29 03:33:37;;;;;;;3.70;2.70;;;;;;;;;;5038594;28;20128;-56
2022/09/29 03:39:05;;;;;;;3.05;2.55;;;;;;;;;;5053903;28;20049;-54
2022/09/29 03:42:18;;;;;;;4.60;3.28;;;;;;;;;;5036190;28;20516;-55
2022/09/29 03:45:02;;;;;;;2.92;2.35;;;;;;;;;;5054714;28;20025;-55
2022/09/29 03:50:39;;;;;;;3.72;2.75;;;;;;;;;;5022359;28;20044;-54
2022/09/29 03:53:24;;;;;;;3.08;2.22;;;;;;;;;;5053762;28;20033;-55
2022/09/29 03:56:21;;;;;;;2.88;2.05;;;;;;;;;;5054640;28;20407;-55
2022/09/29 03:59:22;;;;;;;3.53;2.35;;;;;;;;;;5053619;28;20395;-55
2022/09/29 04:02:08;;;;;;;4.68;2.30;;;;;;;;;;5054009;28;20405;-55
2022/09/29 04:04:37;;;;;;;3.10;2.25;;;;;;;;;;5054513;28;20442;-56
2022/09/29 04:07:38;;;;;;;;;;;;;;;;;;;;;
2022/09/29 04:12:59;;;;;;;2.92;2.30;;;;;;;;;;5042521;28;20152;-55
2022/09/29 04:15:32;;;;;;;3.60;2.88;;;;;;;;;;5054020;28;20091;-56
2022/09/29 04:18:36;;;;;;;2.60;1.92;;;;;;;;;;5053499;28;20091;-55
2022/09/29 04:21:27;;;;;;;5.13;1.85;;;;;;;;;;5038241;28;20513;-54
2022/09/29 04:24:05;;;;;;;2.50;1.88;;;;;;;;;;5054423;28;20025;-54
2022/09/29 04:26:52;;;;;;;5.05;2.25;;;;;;;;;;5037190;28;20079;-54
2022/09/29 04:29:41;;;;;;;3.13;2.17;;;;;;;;;;5058073;28;20045;-56
2022/09/29 04:32:33;;;;;;;3.45;1.80;;;;;;;;;;5045255;28;20044;-56
2022/09/29 04:35:15;;;;;;;3.95;1.73;;;;;;;;;;5058953;28;20044;-56
2022/09/29 04:37:46;;;;;;;3.85;2.25;;;;;;;;;;5058702;28;20343;-55
2022/09/29 04:40:27;;;;;;;3.97;2.00;;;;;;;;;;5041100;28;20025;-54
2022/09/29 04:43:06;;;;;;;3.45;2.42;;;;;;;;;;5058026;28;20029;-56
2022/09/29 04:45:44;;;;;;;7.93;4.07;;;;;;;;;;5039843;28;20025;-56
2022/09/29 04:48:32;;;;;;;;;;;;;;;;;;;;;
2022/09/29 04:51:02;;;;;;;4.03;3.05;;;;;;;;;;5053016;28;20123;-56
2022/09/29 04:53:43;;;;;;;4.68;2.97;;;;;;;;;;5059095;28;20352;-56
2022/09/29 04:57:29;;;;;;;4.32;2.85;;;;;;;;;;5058460;28;20435;-55
2022/09/29 04:59:28;;;;;;;6.38;3.67;;;;;;;;;;5044454;28;20071;-55
2022/09/29 05:02:22;;;;;;;5.53;3.53;;;;;;;;;;5058479;28;20036;-54
2022/09/29 05:05:20;;;;;;;6.85;4.07;;;;;;;;;;5057406;28;20260;-54
2022/09/29 05:10:56;;;;;;;4.97;3.63;;;;;;;;;;5047213;28;20037;-55
2022/09/29 05:13:45;;;;;;;5.03;4.15;;;;;;;;;;5040197;28;20039;-55
2022/09/29 05:16:35;;;;;;;5.55;4.93;;;;;;;;;;5057662;28;20037;-56
2022/09/29 05:19:13;;;;;;;6.32;4.63;;;;;;;;;;4996552;28;20148;-56
2022/09/29 05:21:54;;;;;;;6.82;4.68;;;;;;;;;;4996275;28;20043;-54
2022/09/29 05:24:33;;;;;;;5.43;4.53;;;;;;;;;;4997151;28;20030;-56
2022/09/29 05:27:13;;;;;;;5.63;4.18;;;;;;;;;;4980698;28;20125;-56
2022/09/29 05:29:42;;;;;;;4.90;3.50;;;;;;;;;;4996514;28;20037;-56
2022/09/29 05:32:27;;;;;;;4.22;3.53;;;;;;;;;;4996375;28;20136;-56
2022/09/29 05:35:02;;;;;;;4.15;3.17;;;;;;;;;;4996509;28;20031;-55
2022/09/29 05:37:46;;;;;;;3.58;3.20;;;;;;;;;;4996572;28;20026;-57
2022/09/29 05:40:44;;;;;;;5.18;3.30;;;;;;;;;;4996448;28;20574;-57
2022/09/29 05:43:23;;;;;;;7.40;3.50;;;;;;;;;;5016413;28;20061;-57
2022/09/29 05:45:58;;;;;;;13.75;3.65;;;;;;;;;;5038649;28;20055;-57
2022/09/29 05:48:53;;;;;;;4.72;3.08;;;;;;;;;;5057727;28;20059;-56
2022/09/29 05:51:48;;;;;;;4.55;4.10;;;;;;;;;;5057541;28;20105;-57
2022/09/29 05:54:26;;;;;;;4.32;3.80;;;;;;;;;;5057023;28;20033;-57
2022/09/29 05:57:24;;;;;;;4.40;3.28;;;;;;;;;;5023271;28;20029;-56
2022/09/29 05:59:56;;;;;;;4.35;3.95;;;;;;;;;;5049952;28;20037;-57
2022/09/29 06:02:32;;;;;;;4.32;3.58;;;;;;;;;;5056990;28;20477;-56
